Decoded Metar for KAFN (JAFFREY in NH, USA) (IATA:AFN) | Meteo·Mobile Aviation Weather
aviador You're here:

KAFN Decoded Metar

JAFFREY in NH, USA
Report Time2019-01-19 16:52:00
UTC Time2019-01-19 17:33:10
Flight Rules vfr VFR
WindCalm
Visibility9999 m
Phenomena:N/A
Clouds:Few 080 Hf
Overcast 100 Hf
Expected CloudBase > 2,400 ft AGL from Temp-Dew spread
Ceiling10,000 ft
Temp-4°C (ISA -17)
Dew Point-10°C (63% RH)
AAT-7.1°C
QNH1023 hPa
Density Alt-1,355 ft
Elevation1,027 ft
Report Wrong Elevation
Raw Report
KAFN 191652Z AUTO 00000KT 10SM FEW080 OVC100 M04/M10 A3022 RMK AO2
SLP254 T10391100=

Extra information for KAFN:More info

Metar Taf Metar & Taf Last 4 Metars F.Rules Stats Wind Profile Meteogram Temp Stats Airport Information Weather charts Add Link Nearby VenuesMetar ALERT Operation Metar Decoded Social comments

AIRNAV info for KAFN